Terminal Aerodrome Forecast
Issued by NWS

Home | Current Version | Previous Version | Text Only | Print | Product List | Glossary On
Versions: 1 2 3 4 5 6 7 8 9 10 11 12 13 14 15 16
000
FTUS45 KTFX 282100 AAA
TAFHVR
TAF AMD
KHVR 282103Z 2821/2918 29008KT P6SM SCT012
      TEMPO 2821/2822 BKN012
     FM282200 25008KT P6SM BKN120
     FM290200 20005KT P6SM BKN150=

USA.gov is the U.S. government's official web portal to all federal, state and local government web resources and services.